sensor_id;sensor_type;location;lat;lon;timestamp;temperature;humidity
56426;DHT22;42330;43.620;3.856;2022-12-08T00:01:32;4.20;93.00
56426;DHT22;42330;43.620;3.856;2022-12-08T00:03:59;4.10;92.70
56426;DHT22;42330;43.620;3.856;2022-12-08T00:12:02;4.10;92.90
56426;DHT22;42330;43.620;3.856;2022-12-08T00:14:34;4.20;92.80
56426;DHT22;42330;43.620;3.856;2022-12-08T00:17:01;4.00;92.30
56426;DHT22;42330;43.620;3.856;2022-12-08T00:19:28;4.00;92.80
56426;DHT22;42330;43.620;3.856;2022-12-08T00:21:54;3.90;93.20
56426;DHT22;42330;43.620;3.856;2022-12-08T00:24:22;3.90;92.70
56426;DHT22;42330;43.620;3.856;2022-12-08T00:26:48;3.90;93.30
56426;DHT22;42330;43.620;3.856;2022-12-08T00:29:14;3.90;93.30
56426;DHT22;42330;43.620;3.856;2022-12-08T00:31:40;4.00;93.40
56426;DHT22;42330;43.620;3.856;2022-12-08T00:34:06;4.10;93.60
56426;DHT22;42330;43.620;3.856;2022-12-08T00:36:32;4.10;92.80
56426;DHT22;42330;43.620;3.856;2022-12-08T00:38:58;4.00;93.00
56426;DHT22;42330;43.620;3.856;2022-12-08T00:41:25;3.90;93.10
56426;DHT22;42330;43.620;3.856;2022-12-08T00:44:13;3.80;93.10
56426;DHT22;42330;43.620;3.856;2022-12-08T00:46:40;3.90;93.40
56426;DHT22;42330;43.620;3.856;2022-12-08T00:49:06;3.70;92.90
56426;DHT22;42330;43.620;3.856;2022-12-08T00:51:32;3.70;93.50
56426;DHT22;42330;43.620;3.856;2022-12-08T00:53:58;3.60;93.60
56426;DHT22;42330;43.620;3.856;2022-12-08T00:56:24;3.60;93.70
56426;DHT22;42330;43.620;3.856;2022-12-08T00:58:50;3.60;93.60
56426;DHT22;42330;43.620;3.856;2022-12-08T01:01:16;3.50;93.70
56426;DHT22;42330;43.620;3.856;2022-12-08T01:03:42;3.50;94.50
56426;DHT22;42330;43.620;3.856;2022-12-08T01:06:09;3.50;93.90
56426;DHT22;42330;43.620;3.856;2022-12-08T01:08:35;3.50;94.00
56426;DHT22;42330;43.620;3.856;2022-12-08T01:11:11;3.50;93.70
56426;DHT22;42330;43.620;3.856;2022-12-08T01:13:37;3.60;94.30
56426;DHT22;42330;43.620;3.856;2022-12-08T01:16:03;3.60;93.90
56426;DHT22;42330;43.620;3.856;2022-12-08T01:18:29;3.40;93.80
56426;DHT22;42330;43.620;3.856;2022-12-08T01:21:00;3.40;94.10
56426;DHT22;42330;43.620;3.856;2022-12-08T01:23:27;3.40;94.10
56426;DHT22;42330;43.620;3.856;2022-12-08T01:25:52;3.50;94.90
56426;DHT22;42330;43.620;3.856;2022-12-08T01:28:18;3.60;94.40
56426;DHT22;42330;43.620;3.856;2022-12-08T01:30:44;3.70;94.90
56426;DHT22;42330;43.620;3.856;2022-12-08T01:33:09;3.50;93.40
56426;DHT22;42330;43.620;3.856;2022-12-08T01:35:35;3.40;94.40
56426;DHT22;42330;43.620;3.856;2022-12-08T01:38:01;3.50;94.90
56426;DHT22;42330;43.620;3.856;2022-12-08T01:40:26;3.50;94.40
56426;DHT22;42330;43.620;3.856;2022-12-08T01:42:52;3.50;94.20
56426;DHT22;42330;43.620;3.856;2022-12-08T01:45:24;3.60;94.90
56426;DHT22;42330;43.620;3.856;2022-12-08T01:47:55;3.60;94.90
56426;DHT22;42330;43.620;3.856;2022-12-08T01:50:21;3.70;94.00
56426;DHT22;42330;43.620;3.856;2022-12-08T01:52:54;3.90;94.10
56426;DHT22;42330;43.620;3.856;2022-12-08T01:55:23;3.80;93.60
56426;DHT22;42330;43.620;3.856;2022-12-08T01:57:57;3.90;93.40
56426;DHT22;42330;43.620;3.856;2022-12-08T02:00:24;3.90;93.30
56426;DHT22;42330;43.620;3.856;2022-12-08T02:02:56;4.00;92.90
56426;DHT22;42330;43.620;3.856;2022-12-08T02:05:29;4.00;93.10
56426;DHT22;42330;43.620;3.856;2022-12-08T02:07:57;4.00;93.00
56426;DHT22;42330;43.620;3.856;2022-12-08T02:10:25;4.00;93.00
56426;DHT22;42330;43.620;3.856;2022-12-08T02:12:54;4.10;93.00
56426;DHT22;42330;43.620;3.856;2022-12-08T02:23:40;4.30;91.90
56426;DHT22;42330;43.620;3.856;2022-12-08T02:26:23;4.40;92.00
56426;DHT22;42330;43.620;3.856;2022-12-08T02:36:49;4.50;91.70
56426;DHT22;42330;43.620;3.856;2022-12-08T02:39:53;4.50;91.70
56426;DHT22;42330;43.620;3.856;2022-12-08T02:42:42;4.60;91.40
56426;DHT22;42330;43.620;3.856;2022-12-08T02:45:11;4.60;91.30
56426;DHT22;42330;43.620;3.856;2022-12-08T02:47:39;4.60;91.80
56426;DHT22;42330;43.620;3.856;2022-12-08T02:50:06;4.50;91.20
56426;DHT22;42330;43.620;3.856;2022-12-08T02:55:28;4.60;91.40
56426;DHT22;42330;43.620;3.856;2022-12-08T03:09:57;4.60;90.90
56426;DHT22;42330;43.620;3.856;2022-12-08T03:12:30;4.60;90.80
56426;DHT22;42330;43.620;3.856;2022-12-08T03:15:05;4.60;91.50
56426;DHT22;42330;43.620;3.856;2022-12-08T03:17:31;4.70;91.70
56426;DHT22;42330;43.620;3.856;2022-12-08T03:20:00;4.60;91.70
56426;DHT22;42330;43.620;3.856;2022-12-08T03:22:28;4.70;91.20
56426;DHT22;42330;43.620;3.856;2022-12-08T03:24:55;4.70;91.10
56426;DHT22;42330;43.620;3.856;2022-12-08T03:27:26;4.70;91.30
56426;DHT22;42330;43.620;3.856;2022-12-08T03:29:55;4.70;91.30
56426;DHT22;42330;43.620;3.856;2022-12-08T03:35:10;4.70;90.60
56426;DHT22;42330;43.620;3.856;2022-12-08T03:37:39;4.70;90.80
56426;DHT22;42330;43.620;3.856;2022-12-08T03:40:07;4.80;91.00
56426;DHT22;42330;43.620;3.856;2022-12-08T03:42:33;4.80;90.40
56426;DHT22;42330;43.620;3.856;2022-12-08T03:44:59;4.80;91.20
56426;DHT22;42330;43.620;3.856;2022-12-08T03:47:24;4.80;91.40
56426;DHT22;42330;43.620;3.856;2022-12-08T03:49:50;4.80;90.50
56426;DHT22;42330;43.620;3.856;2022-12-08T03:52:16;4.80;90.90
56426;DHT22;42330;43.620;3.856;2022-12-08T03:54:41;4.70;90.70
56426;DHT22;42330;43.620;3.856;2022-12-08T03:57:07;4.70;90.60
56426;DHT22;42330;43.620;3.856;2022-12-08T03:59:33;4.70;90.50
56426;DHT22;42330;43.620;3.856;2022-12-08T04:01:59;4.80;90.70
56426;DHT22;42330;43.620;3.856;2022-12-08T04:04:24;4.80;90.80
56426;DHT22;42330;43.620;3.856;2022-12-08T04:06:50;4.80;90.60
56426;DHT22;42330;43.620;3.856;2022-12-08T04:09:17;4.70;90.50
56426;DHT22;42330;43.620;3.856;2022-12-08T04:11:43;4.80;90.40
56426;DHT22;42330;43.620;3.856;2022-12-08T04:14:08;4.80;90.40
56426;DHT22;42330;43.620;3.856;2022-12-08T04:16:34;4.80;91.20
56426;DHT22;42330;43.620;3.856;2022-12-08T04:19:00;4.80;90.20
56426;DHT22;42330;43.620;3.856;2022-12-08T04:21:26;4.90;90.50
56426;DHT22;42330;43.620;3.856;2022-12-08T04:23:52;4.80;89.50
56426;DHT22;42330;43.620;3.856;2022-12-08T04:26:17;4.90;90.40
56426;DHT22;42330;43.620;3.856;2022-12-08T04:28:43;4.90;90.00
56426;DHT22;42330;43.620;3.856;2022-12-08T04:31:09;4.80;90.00
56426;DHT22;42330;43.620;3.856;2022-12-08T04:33:35;4.80;90.00
56426;DHT22;42330;43.620;3.856;2022-12-08T04:36:03;4.80;90.10
56426;DHT22;42330;43.620;3.856;2022-12-08T04:38:29;4.80;90.40
56426;DHT22;42330;43.620;3.856;2022-12-08T04:40:54;4.90;90.10
56426;DHT22;42330;43.620;3.856;2022-12-08T04:43:20;4.90;90.30
56426;DHT22;42330;43.620;3.856;2022-12-08T04:45:46;4.80;89.50
56426;DHT22;42330;43.620;3.856;2022-12-08T04:48:12;4.80;89.50
56426;DHT22;42330;43.620;3.856;2022-12-08T04:50:42;4.80;88.70
56426;DHT22;42330;43.620;3.856;2022-12-08T04:53:08;4.80;89.20
56426;DHT22;42330;43.620;3.856;2022-12-08T04:55:37;4.80;89.20
56426;DHT22;42330;43.620;3.856;2022-12-08T04:58:03;4.90;89.70
56426;DHT22;42330;43.620;3.856;2022-12-08T05:00:29;5.00;89.00
56426;DHT22;42330;43.620;3.856;2022-12-08T05:02:54;5.00;88.00
56426;DHT22;42330;43.620;3.856;2022-12-08T05:05:20;4.90;89.10
56426;DHT22;42330;43.620;3.856;2022-12-08T05:07:46;4.90;89.10
56426;DHT22;42330;43.620;3.856;2022-12-08T05:10:11;4.90;89.50
56426;DHT22;42330;43.620;3.856;2022-12-08T05:12:37;4.90;89.00
56426;DHT22;42330;43.620;3.856;2022-12-08T05:15:03;4.90;90.00
56426;DHT22;42330;43.620;3.856;2022-12-08T05:17:29;4.80;89.50
56426;DHT22;42330;43.620;3.856;2022-12-08T05:19:54;4.80;89.50
56426;DHT22;42330;43.620;3.856;2022-12-08T05:22:20;4.90;89.60
56426;DHT22;42330;43.620;3.856;2022-12-08T05:24:46;4.80;89.60
56426;DHT22;42330;43.620;3.856;2022-12-08T05:27:11;4.90;89.80
56426;DHT22;42330;43.620;3.856;2022-12-08T05:29:37;4.90;88.70
56426;DHT22;42330;43.620;3.856;2022-12-08T05:32:03;4.90;88.20
56426;DHT22;42330;43.620;3.856;2022-12-08T05:34:28;4.90;88.40
56426;DHT22;42330;43.620;3.856;2022-12-08T05:36:54;4.90;88.80
56426;DHT22;42330;43.620;3.856;2022-12-08T05:39:20;4.90;88.80
56426;DHT22;42330;43.620;3.856;2022-12-08T05:41:45;4.90;88.90
56426;DHT22;42330;43.620;3.856;2022-12-08T05:44:11;4.90;87.40
56426;DHT22;42330;43.620;3.856;2022-12-08T05:46:36;5.00;88.40
56426;DHT22;42330;43.620;3.856;2022-12-08T05:49:02;5.00;87.80
56426;DHT22;42330;43.620;3.856;2022-12-08T05:51:28;4.90;87.20
56426;DHT22;42330;43.620;3.856;2022-12-08T05:53:55;4.90;86.40
56426;DHT22;42330;43.620;3.856;2022-12-08T05:56:21;4.90;85.90
56426;DHT22;42330;43.620;3.856;2022-12-08T05:58:47;4.90;86.80
56426;DHT22;42330;43.620;3.856;2022-12-08T06:01:24;4.90;86.60
56426;DHT22;42330;43.620;3.856;2022-12-08T06:03:51;4.90;86.70
56426;DHT22;42330;43.620;3.856;2022-12-08T06:06:16;4.80;85.40
56426;DHT22;42330;43.620;3.856;2022-12-08T06:08:42;4.70;86.50
56426;DHT22;42330;43.620;3.856;2022-12-08T06:11:08;4.60;86.90
56426;DHT22;42330;43.620;3.856;2022-12-08T06:13:34;4.60;86.80
56426;DHT22;42330;43.620;3.856;2022-12-08T06:16:04;4.50;87.20
56426;DHT22;42330;43.620;3.856;2022-12-08T06:18:30;4.50;87.30
56426;DHT22;42330;43.620;3.856;2022-12-08T06:21:03;4.40;86.80
56426;DHT22;42330;43.620;3.856;2022-12-08T06:23:29;4.40;86.80
56426;DHT22;42330;43.620;3.856;2022-12-08T06:25:59;4.30;87.50
56426;DHT22;42330;43.620;3.856;2022-12-08T06:28:25;4.30;86.60
56426;DHT22;42330;43.620;3.856;2022-12-08T06:30:51;4.30;88.40
56426;DHT22;42330;43.620;3.856;2022-12-08T06:33:17;4.30;87.90
56426;DHT22;42330;43.620;3.856;2022-12-08T06:35:42;4.30;88.50
56426;DHT22;42330;43.620;3.856;2022-12-08T06:38:08;4.30;87.40
56426;DHT22;42330;43.620;3.856;2022-12-08T06:40:33;4.30;87.80
56426;DHT22;42330;43.620;3.856;2022-12-08T06:42:59;4.30;89.10
56426;DHT22;42330;43.620;3.856;2022-12-08T06:45:25;4.40;87.50
56426;DHT22;42330;43.620;3.856;2022-12-08T06:47:50;4.30;87.60
56426;DHT22;42330;43.620;3.856;2022-12-08T06:50:16;4.30;87.00
56426;DHT22;42330;43.620;3.856;2022-12-08T06:52:42;4.30;87.30
56426;DHT22;42330;43.620;3.856;2022-12-08T06:55:08;4.30;88.30
56426;DHT22;42330;43.620;3.856;2022-12-08T06:57:33;4.40;88.00
56426;DHT22;42330;43.620;3.856;2022-12-08T06:59:59;4.40;87.10
56426;DHT22;42330;43.620;3.856;2022-12-08T07:02:25;4.40;87.10
56426;DHT22;42330;43.620;3.856;2022-12-08T07:04:51;4.40;87.60
56426;DHT22;42330;43.620;3.856;2022-12-08T07:07:16;4.40;86.00
56426;DHT22;42330;43.620;3.856;2022-12-08T07:09:42;4.30;87.10
56426;DHT22;42330;43.620;3.856;2022-12-08T07:12:08;4.30;87.40
56426;DHT22;42330;43.620;3.856;2022-12-08T07:14:34;4.20;87.30
56426;DHT22;42330;43.620;3.856;2022-12-08T07:16:59;4.20;87.70
56426;DHT22;42330;43.620;3.856;2022-12-08T07:19:26;4.20;87.60
56426;DHT22;42330;43.620;3.856;2022-12-08T07:21:52;4.30;87.50
56426;DHT22;42330;43.620;3.856;2022-12-08T07:24:17;4.40;87.70
56426;DHT22;42330;43.620;3.856;2022-12-08T07:26:43;4.40;87.00
56426;DHT22;42330;43.620;3.856;2022-12-08T07:29:09;4.40;86.90
56426;DHT22;42330;43.620;3.856;2022-12-08T07:31:35;4.30;86.70
56426;DHT22;42330;43.620;3.856;2022-12-08T07:34:01;4.40;87.60
56426;DHT22;42330;43.620;3.856;2022-12-08T07:36:27;4.50;87.60
56426;DHT22;42330;43.620;3.856;2022-12-08T07:38:53;4.50;86.70
56426;DHT22;42330;43.620;3.856;2022-12-08T07:41:21;4.50;87.20
56426;DHT22;42330;43.620;3.856;2022-12-08T07:43:47;4.50;87.10
56426;DHT22;42330;43.620;3.856;2022-12-08T07:46:15;4.60;87.40
56426;DHT22;42330;43.620;3.856;2022-12-08T07:48:41;4.60;86.20
56426;DHT22;42330;43.620;3.856;2022-12-08T07:51:07;4.50;86.20
56426;DHT22;42330;43.620;3.856;2022-12-08T07:53:33;4.50;86.60
56426;DHT22;42330;43.620;3.856;2022-12-08T07:55:59;4.60;87.60
56426;DHT22;42330;43.620;3.856;2022-12-08T07:58:25;4.60;87.30
56426;DHT22;42330;43.620;3.856;2022-12-08T08:00:52;4.60;86.80
56426;DHT22;42330;43.620;3.856;2022-12-08T08:03:18;4.70;86.90
56426;DHT22;42330;43.620;3.856;2022-12-08T08:05:44;4.70;86.70
56426;DHT22;42330;43.620;3.856;2022-12-08T08:08:11;4.70;85.80
56426;DHT22;42330;43.620;3.856;2022-12-08T08:10:37;4.70;86.10
56426;DHT22;42330;43.620;3.856;2022-12-08T08:13:03;4.70;86.00
56426;DHT22;42330;43.620;3.856;2022-12-08T08:15:28;4.80;86.90
56426;DHT22;42330;43.620;3.856;2022-12-08T08:17:55;4.80;86.00
56426;DHT22;42330;43.620;3.856;2022-12-08T08:20:21;4.90;87.10
56426;DHT22;42330;43.620;3.856;2022-12-08T08:22:48;5.00;86.20
56426;DHT22;42330;43.620;3.856;2022-12-08T08:25:14;5.00;85.90
56426;DHT22;42330;43.620;3.856;2022-12-08T08:27:41;5.00;86.10
56426;DHT22;42330;43.620;3.856;2022-12-08T08:30:09;5.00;86.50
56426;DHT22;42330;43.620;3.856;2022-12-08T08:32:35;5.10;87.30
56426;DHT22;42330;43.620;3.856;2022-12-08T08:35:01;5.20;85.40
56426;DHT22;42330;43.620;3.856;2022-12-08T08:37:27;5.20;86.40
56426;DHT22;42330;43.620;3.856;2022-12-08T08:39:53;5.20;86.10
56426;DHT22;42330;43.620;3.856;2022-12-08T08:42:19;5.40;85.80
56426;DHT22;42330;43.620;3.856;2022-12-08T08:44:45;5.30;84.70
56426;DHT22;42330;43.620;3.856;2022-12-08T08:47:10;5.40;86.10
56426;DHT22;42330;43.620;3.856;2022-12-08T08:49:36;5.40;85.80
56426;DHT22;42330;43.620;3.856;2022-12-08T08:52:03;5.50;86.50
56426;DHT22;42330;43.620;3.856;2022-12-08T08:54:29;5.50;86.70
56426;DHT22;42330;43.620;3.856;2022-12-08T08:56:57;5.60;85.50
56426;DHT22;42330;43.620;3.856;2022-12-08T08:59:23;5.60;85.30
56426;DHT22;42330;43.620;3.856;2022-12-08T09:01:48;5.70;85.80
56426;DHT22;42330;43.620;3.856;2022-12-08T09:04:14;5.80;84.30
56426;DHT22;42330;43.620;3.856;2022-12-08T09:06:40;5.80;84.70
56426;DHT22;42330;43.620;3.856;2022-12-08T09:09:07;5.80;84.20
56426;DHT22;42330;43.620;3.856;2022-12-08T09:11:33;5.90;84.40
56426;DHT22;42330;43.620;3.856;2022-12-08T09:13:59;5.80;84.00
56426;DHT22;42330;43.620;3.856;2022-12-08T09:16:24;5.90;85.60
56426;DHT22;42330;43.620;3.856;2022-12-08T09:18:50;6.00;84.90
56426;DHT22;42330;43.620;3.856;2022-12-08T09:21:18;6.00;82.80
56426;DHT22;42330;43.620;3.856;2022-12-08T09:23:47;6.10;83.60
56426;DHT22;42330;43.620;3.856;2022-12-08T09:26:13;6.10;84.10
56426;DHT22;42330;43.620;3.856;2022-12-08T09:28:39;6.20;84.80
56426;DHT22;42330;43.620;3.856;2022-12-08T09:31:11;6.30;84.50
56426;DHT22;42330;43.620;3.856;2022-12-08T09:33:37;6.30;83.60
56426;DHT22;42330;43.620;3.856;2022-12-08T09:36:03;6.30;84.60
56426;DHT22;42330;43.620;3.856;2022-12-08T09:38:29;6.40;86.40
56426;DHT22;42330;43.620;3.856;2022-12-08T09:40:55;6.40;84.30
56426;DHT22;42330;43.620;3.856;2022-12-08T09:46:27;6.40;81.80
56426;DHT22;42330;43.620;3.856;2022-12-08T09:48:57;6.30;81.90
56426;DHT22;42330;43.620;3.856;2022-12-08T09:51:25;6.40;83.70
56426;DHT22;42330;43.620;3.856;2022-12-08T09:53:52;6.50;83.40
56426;DHT22;42330;43.620;3.856;2022-12-08T09:56:24;6.40;82.00
56426;DHT22;42330;43.620;3.856;2022-12-08T10:01:32;6.50;82.00
56426;DHT22;42330;43.620;3.856;2022-12-08T10:03:58;6.40;79.60
56426;DHT22;42330;43.620;3.856;2022-12-08T10:06:30;6.40;80.40
56426;DHT22;42330;43.620;3.856;2022-12-08T10:16:47;6.40;80.20
56426;DHT22;42330;43.620;3.856;2022-12-08T10:19:22;6.40;80.20
56426;DHT22;42330;43.620;3.856;2022-12-08T10:21:48;6.50;80.50
56426;DHT22;42330;43.620;3.856;2022-12-08T10:26:53;6.50;80.30
56426;DHT22;42330;43.620;3.856;2022-12-08T10:29:19;6.50;80.70
56426;DHT22;42330;43.620;3.856;2022-12-08T10:31:45;6.60;81.00
56426;DHT22;42330;43.620;3.856;2022-12-08T10:34:19;6.50;80.60
56426;DHT22;42330;43.620;3.856;2022-12-08T10:36:55;6.60;82.30
56426;DHT22;42330;43.620;3.856;2022-12-08T10:41:53;6.50;81.00
56426;DHT22;42330;43.620;3.856;2022-12-08T10:44:24;6.50;81.90
56426;DHT22;42330;43.620;3.856;2022-12-08T10:46:50;6.60;82.70
56426;DHT22;42330;43.620;3.856;2022-12-08T10:49:25;6.60;81.80
56426;DHT22;42330;43.620;3.856;2022-12-08T10:51:51;6.60;81.90
56426;DHT22;42330;43.620;3.856;2022-12-08T10:54:36;6.60;83.40
56426;DHT22;42330;43.620;3.856;2022-12-08T10:57:03;6.60;81.90
56426;DHT22;42330;43.620;3.856;2022-12-08T10:59:32;6.60;80.80
56426;DHT22;42330;43.620;3.856;2022-12-08T11:01:59;6.60;81.00
56426;DHT22;42330;43.620;3.856;2022-12-08T11:04:36;6.60;81.30
56426;DHT22;42330;43.620;3.856;2022-12-08T11:07:04;6.70;81.80
56426;DHT22;42330;43.620;3.856;2022-12-08T11:09:38;6.70;82.00
56426;DHT22;42330;43.620;3.856;2022-12-08T11:15:19;6.70;80.70
56426;DHT22;42330;43.620;3.856;2022-12-08T11:17:26;6.70;81.70
56426;DHT22;42330;43.620;3.856;2022-12-08T11:20:00;6.70;82.40
56426;DHT22;42330;43.620;3.856;2022-12-08T11:27:33;6.80;82.20
56426;DHT22;42330;43.620;3.856;2022-12-08T11:30:01;6.80;80.20
56426;DHT22;42330;43.620;3.856;2022-12-08T11:32:27;6.80;81.10
56426;DHT22;42330;43.620;3.856;2022-12-08T11:35:03;6.80;81.40
56426;DHT22;42330;43.620;3.856;2022-12-08T11:37:38;6.90;81.90
56426;DHT22;42330;43.620;3.856;2022-12-08T11:40:15;7.00;81.70
56426;DHT22;42330;43.620;3.856;2022-12-08T11:45:31;7.00;81.30
56426;DHT22;42330;43.620;3.856;2022-12-08T11:50:46;7.00;80.40
56426;DHT22;42330;43.620;3.856;2022-12-08T11:56:31;6.90;79.80
56426;DHT22;42330;43.620;3.856;2022-12-08T11:59:09;6.90;80.50
56426;DHT22;42330;43.620;3.856;2022-12-08T12:01:37;6.90;81.30
56426;DHT22;42330;43.620;3.856;2022-12-08T12:04:30;7.00;81.40
56426;DHT22;42330;43.620;3.856;2022-12-08T12:09:35;7.00;80.20
56426;DHT22;42330;43.620;3.856;2022-12-08T12:17:46;7.00;80.70
56426;DHT22;42330;43.620;3.856;2022-12-08T12:20:23;7.00;82.40
56426;DHT22;42330;43.620;3.856;2022-12-08T12:23:06;7.10;81.40
56426;DHT22;42330;43.620;3.856;2022-12-08T12:25:34;7.10;81.10
56426;DHT22;42330;43.620;3.856;2022-12-08T12:28:05;7.10;80.70
56426;DHT22;42330;43.620;3.856;2022-12-08T12:30:50;7.10;81.40
56426;DHT22;42330;43.620;3.856;2022-12-08T12:33:19;7.10;80.90
56426;DHT22;42330;43.620;3.856;2022-12-08T12:35:45;7.10;81.20
56426;DHT22;42330;43.620;3.856;2022-12-08T12:38:34;7.10;81.00
56426;DHT22;42330;43.620;3.856;2022-12-08T12:41:21;7.10;81.10
56426;DHT22;42330;43.620;3.856;2022-12-08T12:52:04;7.10;81.90
56426;DHT22;42330;43.620;3.856;2022-12-08T12:54:30;7.00;81.70
56426;DHT22;42330;43.620;3.856;2022-12-08T13:02:27;7.00;82.70
56426;DHT22;42330;43.620;3.856;2022-12-08T13:04:54;7.10;83.70
56426;DHT22;42330;43.620;3.856;2022-12-08T13:07:33;7.10;83.40
56426;DHT22;42330;43.620;3.856;2022-12-08T13:15:33;7.20;85.70
56426;DHT22;42330;43.620;3.856;2022-12-08T13:17:59;7.20;84.30
56426;DHT22;42330;43.620;3.856;2022-12-08T13:20:25;7.20;84.20
56426;DHT22;42330;43.620;3.856;2022-12-08T13:23:11;7.20;83.80
56426;DHT22;42330;43.620;3.856;2022-12-08T13:25:45;7.20;83.60
56426;DHT22;42330;43.620;3.856;2022-12-08T13:28:24;7.10;84.20
56426;DHT22;42330;43.620;3.856;2022-12-08T13:30:55;7.10;84.60
56426;DHT22;42330;43.620;3.856;2022-12-08T13:33:25;7.10;84.70
56426;DHT22;42330;43.620;3.856;2022-12-08T13:38:38;7.10;85.00
56426;DHT22;42330;43.620;3.856;2022-12-08T13:41:12;7.10;85.10
56426;DHT22;42330;43.620;3.856;2022-12-08T13:43:54;7.10;84.90
56426;DHT22;42330;43.620;3.856;2022-12-08T13:46:35;7.10;85.50
56426;DHT22;42330;43.620;3.856;2022-12-08T13:49:03;7.10;84.80
56426;DHT22;42330;43.620;3.856;2022-12-08T13:51:41;7.10;85.00
56426;DHT22;42330;43.620;3.856;2022-12-08T13:56:42;7.10;84.80
56426;DHT22;42330;43.620;3.856;2022-12-08T13:59:28;7.10;84.90
56426;DHT22;42330;43.620;3.856;2022-12-08T14:01:57;7.10;85.40
56426;DHT22;42330;43.620;3.856;2022-12-08T14:04:24;7.10;85.50
56426;DHT22;42330;43.620;3.856;2022-12-08T14:06:54;7.10;85.30
56426;DHT22;42330;43.620;3.856;2022-12-08T14:09:22;7.10;85.20
56426;DHT22;42330;43.620;3.856;2022-12-08T14:14:42;7.10;86.20
56426;DHT22;42330;43.620;3.856;2022-12-08T14:17:18;7.10;85.60
56426;DHT22;42330;43.620;3.856;2022-12-08T14:19:58;7.10;85.70
56426;DHT22;42330;43.620;3.856;2022-12-08T14:22:30;7.10;85.80
56426;DHT22;42330;43.620;3.856;2022-12-08T14:24:56;7.10;85.90
56426;DHT22;42330;43.620;3.856;2022-12-08T14:27:24;7.10;86.30
56426;DHT22;42330;43.620;3.856;2022-12-08T14:29:59;7.10;85.90
56426;DHT22;42330;43.620;3.856;2022-12-08T14:32:34;7.20;86.50
56426;DHT22;42330;43.620;3.856;2022-12-08T14:37:47;7.20;85.90
56426;DHT22;42330;43.620;3.856;2022-12-08T14:40:36;7.20;87.30
56426;DHT22;42330;43.620;3.856;2022-12-08T14:45:44;7.20;86.00
56426;DHT22;42330;43.620;3.856;2022-12-08T14:48:20;7.20;86.40
56426;DHT22;42330;43.620;3.856;2022-12-08T14:51:12;7.20;86.10
56426;DHT22;42330;43.620;3.856;2022-12-08T14:53:42;7.20;86.50
56426;DHT22;42330;43.620;3.856;2022-12-08T14:56:22;7.30;87.30
56426;DHT22;42330;43.620;3.856;2022-12-08T15:01:28;7.30;87.30
56426;DHT22;42330;43.620;3.856;2022-12-08T15:04:06;7.30;86.70
56426;DHT22;42330;43.620;3.856;2022-12-08T15:06:33;7.30;86.50
56426;DHT22;42330;43.620;3.856;2022-12-08T15:09:24;7.30;86.60
56426;DHT22;42330;43.620;3.856;2022-12-08T15:12:22;7.30;87.50
56426;DHT22;42330;43.620;3.856;2022-12-08T15:14:58;7.30;87.50
56426;DHT22;42330;43.620;3.856;2022-12-08T15:17:43;7.30;88.80
56426;DHT22;42330;43.620;3.856;2022-12-08T15:20:31;7.20;90.00
56426;DHT22;42330;43.620;3.856;2022-12-08T15:22:58;7.20;91.40
56426;DHT22;42330;43.620;3.856;2022-12-08T15:25:24;7.10;92.50
56426;DHT22;42330;43.620;3.856;2022-12-08T15:27:50;7.00;92.60
56426;DHT22;42330;43.620;3.856;2022-12-08T15:30:20;7.00;93.00
56426;DHT22;42330;43.620;3.856;2022-12-08T15:32:46;6.90;94.50
56426;DHT22;42330;43.620;3.856;2022-12-08T15:35:13;6.90;94.80
56426;DHT22;42330;43.620;3.856;2022-12-08T15:37:39;7.00;95.60
56426;DHT22;42330;43.620;3.856;2022-12-08T15:40:05;6.90;96.00
56426;DHT22;42330;43.620;3.856;2022-12-08T15:42:31;6.90;96.70
56426;DHT22;42330;43.620;3.856;2022-12-08T15:44:57;6.80;97.40
56426;DHT22;42330;43.620;3.856;2022-12-08T15:47:23;6.70;97.50
56426;DHT22;42330;43.620;3.856;2022-12-08T15:49:50;6.70;97.70
56426;DHT22;42330;43.620;3.856;2022-12-08T15:52:21;6.70;97.90
56426;DHT22;42330;43.620;3.856;2022-12-08T15:54:47;6.70;98.40
56426;DHT22;42330;43.620;3.856;2022-12-08T15:59:41;6.60;98.80
56426;DHT22;42330;43.620;3.856;2022-12-08T16:02:11;6.60;98.80
56426;DHT22;42330;43.620;3.856;2022-12-08T16:04:37;6.70;99.10
56426;DHT22;42330;43.620;3.856;2022-12-08T16:07:04;6.60;99.90
56426;DHT22;42330;43.620;3.856;2022-12-08T16:09:38;6.60;99.90
56426;DHT22;42330;43.620;3.856;2022-12-08T16:12:05;6.60;99.90
56426;DHT22;42330;43.620;3.856;2022-12-08T16:14:49;6.60;99.90
56426;DHT22;42330;43.620;3.856;2022-12-08T16:17:16;6.50;99.90
56426;DHT22;42330;43.620;3.856;2022-12-08T16:19:42;6.50;99.90
56426;DHT22;42330;43.620;3.856;2022-12-08T16:22:38;6.50;99.90
56426;DHT22;42330;43.620;3.856;2022-12-08T16:25:04;6.50;99.90
56426;DHT22;42330;43.620;3.856;2022-12-08T16:27:32;6.50;99.90
56426;DHT22;42330;43.620;3.856;2022-12-08T16:29:59;6.50;99.90
56426;DHT22;42330;43.620;3.856;2022-12-08T16:32:26;6.50;99.90
56426;DHT22;42330;43.620;3.856;2022-12-08T16:34:53;6.50;99.90
56426;DHT22;42330;43.620;3.856;2022-12-08T16:37:21;6.40;99.90
56426;DHT22;42330;43.620;3.856;2022-12-08T16:39:48;6.40;99.90
56426;DHT22;42330;43.620;3.856;2022-12-08T16:42:19;6.40;99.90
56426;DHT22;42330;43.620;3.856;2022-12-08T16:45:25;6.30;99.90
56426;DHT22;42330;43.620;3.856;2022-12-08T16:47:53;6.30;99.90
56426;DHT22;42330;43.620;3.856;2022-12-08T16:50:21;6.30;99.90
56426;DHT22;42330;43.620;3.856;2022-12-08T16:52:48;6.40;99.90
56426;DHT22;42330;43.620;3.856;2022-12-08T16:55:18;6.30;99.90
56426;DHT22;42330;43.620;3.856;2022-12-08T16:57:45;6.30;99.90
56426;DHT22;42330;43.620;3.856;2022-12-08T17:00:14;6.30;99.90
56426;DHT22;42330;43.620;3.856;2022-12-08T17:02:40;6.30;99.90
56426;DHT22;42330;43.620;3.856;2022-12-08T17:05:06;6.30;99.90
56426;DHT22;42330;43.620;3.856;2022-12-08T17:07:33;6.30;99.90
56426;DHT22;42330;43.620;3.856;2022-12-08T17:10:02;6.30;99.90
56426;DHT22;42330;43.620;3.856;2022-12-08T17:12:28;6.30;99.90
56426;DHT22;42330;43.620;3.856;2022-12-08T17:14:54;6.30;99.90
56426;DHT22;42330;43.620;3.856;2022-12-08T17:17:20;6.30;99.90
56426;DHT22;42330;43.620;3.856;2022-12-08T17:19:45;6.30;99.90
56426;DHT22;42330;43.620;3.856;2022-12-08T17:22:11;6.30;99.90
56426;DHT22;42330;43.620;3.856;2022-12-08T17:24:37;6.40;99.90
56426;DHT22;42330;43.620;3.856;2022-12-08T17:27:03;6.40;99.90
56426;DHT22;42330;43.620;3.856;2022-12-08T17:29:30;6.40;99.90
56426;DHT22;42330;43.620;3.856;2022-12-08T17:31:56;6.30;99.90
56426;DHT22;42330;43.620;3.856;2022-12-08T17:34:22;6.30;99.90
56426;DHT22;42330;43.620;3.856;2022-12-08T17:36:48;6.30;99.90
56426;DHT22;42330;43.620;3.856;2022-12-08T17:39:14;6.30;99.90
56426;DHT22;42330;43.620;3.856;2022-12-08T17:41:40;6.40;99.90
56426;DHT22;42330;43.620;3.856;2022-12-08T17:44:14;6.40;99.90
56426;DHT22;42330;43.620;3.856;2022-12-08T17:46:41;6.40;99.90
56426;DHT22;42330;43.620;3.856;2022-12-08T17:49:15;6.40;99.90
56426;DHT22;42330;43.620;3.856;2022-12-08T17:51:41;6.30;99.90
56426;DHT22;42330;43.620;3.856;2022-12-08T17:54:07;6.40;99.90
56426;DHT22;42330;43.620;3.856;2022-12-08T17:56:33;6.40;99.90